Time;durP1;ratioP1;P1;durP2;ratioP2;P2;SDS_P1;SDS_P2;PMS_P1;PMS_P2;Temp;Humidity;BMP_temperature;BMP_pressure;BME280_temperature;BME280_humidity;BME280_pressure;Samples;Min_cycle;Max_cycle;Signal;HPM_P1;HPM_P2
2021/12/18 00:00:33;;;;;;;18.35;8.35;;;;;;;;;;4983137;28;20051;-69
2021/12/18 00:02:59;;;;;;;20.52;9.75;;;;;;;;;;4973546;28;20483;-70
2021/12/18 00:05:26;;;;;;;15.63;8.27;;;;;;;;;;4973976;28;20579;-71
2021/12/18 00:07:52;;;;;;;17.15;8.43;;;;;;;;;;4973785;28;20065;-70
2021/12/18 00:10:21;;;;;;;16.08;8.52;;;;;;;;;;4973933;28;20096;-70
2021/12/18 00:12:49;;;;;;;16.75;8.52;;;;;;;;;;4974943;28;20055;-69
2021/12/18 00:15:22;;;;;;;16.95;8.18;;;;;;;;;;4980052;28;20054;-69
2021/12/18 00:17:48;;;;;;;23.88;9.30;;;;;;;;;;4976015;28;20491;-69
2021/12/18 00:20:16;;;;;;;18.58;9.50;;;;;;;;;;4974415;28;20133;-69
2021/12/18 00:22:42;;;;;;;17.95;9.18;;;;;;;;;;4976164;28;20055;-69
2021/12/18 00:25:09;;;;;;;17.70;8.70;;;;;;;;;;4973207;28;20126;-69
2021/12/18 00:27:36;;;;;;;21.60;9.93;;;;;;;;;;4972908;28;20050;-69
2021/12/18 00:30:03;;;;;;;20.95;9.43;;;;;;;;;;4972693;28;20063;-69
2021/12/18 00:32:29;;;;;;;21.60;9.55;;;;;;;;;;4972774;28;20063;-69
2021/12/18 00:34:56;;;;;;;21.23;10.30;;;;;;;;;;4979909;28;20056;-70
2021/12/18 00:37:22;;;;;;;19.50;9.93;;;;;;;;;;4972997;28;20066;-71
2021/12/18 00:39:56;;;;;;;22.48;10.45;;;;;;;;;;4967690;28;20056;-70
2021/12/18 00:45:17;;;;;;;22.52;10.50;;;;;;;;;;4982342;28;20055;-70
2021/12/18 00:47:44;;;;;;;19.33;10.60;;;;;;;;;;4973739;28;20057;-70
2021/12/18 00:50:13;;;;;;;20.20;9.45;;;;;;;;;;4971547;28;20063;-70
2021/12/18 00:52:40;;;;;;;25.85;11.02;;;;;;;;;;4971778;28;20143;-70
2021/12/18 00:55:06;;;;;;;23.65;10.93;;;;;;;;;;4972758;28;20063;-69
2021/12/18 00:57:33;;;;;;;24.83;9.82;;;;;;;;;;4972962;28;20138;-69
2021/12/18 01:00:02;;;;;;;23.48;9.43;;;;;;;;;;4977271;28;20146;-69
2021/12/18 01:02:29;;;;;;;23.45;10.52;;;;;;;;;;4991979;28;20101;-69
2021/12/18 01:04:56;;;;;;;21.38;10.07;;;;;;;;;;4992241;28;20054;-69
2021/12/18 01:07:22;;;;;;;23.17;9.88;;;;;;;;;;4982991;28;20058;-69
2021/12/18 01:12:40;;;;;;;21.23;9.50;;;;;;;;;;4972122;28;20055;-71
2021/12/18 01:15:17;;;;;;;24.52;10.50;;;;;;;;;;4972356;28;20052;-69
2021/12/18 01:23:14;;;;;;;17.33;8.32;;;;;;;;;;4972594;28;20057;-70
2021/12/18 01:25:40;;;;;;;16.10;8.00;;;;;;;;;;4972203;28;20105;-70
2021/12/18 01:28:08;;;;;;;14.77;7.18;;;;;;;;;;4972314;28;20426;-69
2021/12/18 01:30:34;;;;;;;14.48;8.13;;;;;;;;;;4972459;28;20149;-70
2021/12/18 01:33:01;;;;;;;13.63;7.78;;;;;;;;;;4972729;28;20521;-69
2021/12/18 01:35:27;;;;;;;18.13;8.32;;;;;;;;;;4971730;28;20051;-69
2021/12/18 01:37:53;;;;;;;15.82;8.05;;;;;;;;;;4971492;28;20061;-69
2021/12/18 01:40:22;;;;;;;17.50;7.85;;;;;;;;;;4971963;28;20055;-69
2021/12/18 01:46:00;;;;;;;16.05;7.57;;;;;;;;;;4980567;28;20078;-71
2021/12/18 01:53:38;;;;;;;17.17;7.45;;;;;;;;;;4971831;28;20059;-70
2021/12/18 01:56:05;;;;;;;12.20;6.68;;;;;;;;;;4972126;28;20152;-69
2021/12/18 01:58:31;;;;;;;15.00;7.55;;;;;;;;;;4972016;28;20055;-69
2021/12/18 02:00:59;;;;;;;17.50;7.72;;;;;;;;;;4981220;28;20051;-69
2021/12/18 02:03:25;;;;;;;16.85;8.00;;;;;;;;;;4971384;28;20165;-69
2021/12/18 02:05:52;;;;;;;14.93;7.65;;;;;;;;;;4981342;28;20063;-71
2021/12/18 02:08:20;;;;;;;16.45;8.18;;;;;;;;;;4962374;28;20510;-70
2021/12/18 02:10:56;;;;;;;13.48;6.97;;;;;;;;;;4971697;28;20059;-71
2021/12/18 02:13:39;;;;;;;14.40;7.90;;;;;;;;;;4979240;28;20051;-71
2021/12/18 02:21:35;;;;;;;18.40;7.82;;;;;;;;;;4971508;28;20051;-70
2021/12/18 02:24:02;;;;;;;19.23;7.45;;;;;;;;;;4970334;28;20059;-70
2021/12/18 02:26:29;;;;;;;12.65;6.53;;;;;;;;;;4974312;28;20047;-70
2021/12/18 02:28:58;;;;;;;13.25;6.82;;;;;;;;;;4975683;28;20097;-70
2021/12/18 02:31:24;;;;;;;14.20;6.18;;;;;;;;;;4971644;28;20051;-70
2021/12/18 02:33:51;;;;;;;13.13;5.55;;;;;;;;;;4971436;28;20059;-70
2021/12/18 02:36:25;;;;;;;12.88;5.72;;;;;;;;;;4971482;28;20053;-70
2021/12/18 02:41:37;;;;;;;11.75;5.57;;;;;;;;;;4971126;28;20567;-70
2021/12/18 02:44:05;;;;;;;10.65;5.10;;;;;;;;;;4958074;28;20055;-70
2021/12/18 02:46:32;;;;;;;10.95;5.57;;;;;;;;;;4971921;28;20085;-69
2021/12/18 02:49:03;;;;;;;9.80;5.18;;;;;;;;;;4970959;28;20499;-71
2021/12/18 02:51:30;;;;;;;10.95;5.13;;;;;;;;;;4971513;28;20055;-70
2021/12/18 02:53:56;;;;;;;11.45;5.15;;;;;;;;;;4970267;28;20058;-71
2021/12/18 02:56:23;;;;;;;12.30;5.63;;;;;;;;;;4970787;28;20573;-70
2021/12/18 02:58:52;;;;;;;14.90;5.95;;;;;;;;;;4983490;28;20528;-70
2021/12/18 03:01:21;;;;;;;13.20;6.10;;;;;;;;;;4973405;28;20082;-69
2021/12/18 03:03:48;;;;;;;13.30;5.55;;;;;;;;;;4958043;28;20052;-71
2021/12/18 03:06:29;;;;;;;12.25;5.70;;;;;;;;;;4971173;28;20081;-70
2021/12/18 03:25:05;;;;;;;10.68;4.90;;;;;;;;;;4973996;28;20525;-70
2021/12/18 03:27:31;;;;;;;13.80;4.95;;;;;;;;;;4973674;28;20055;-71
2021/12/18 03:29:57;;;;;;;13.98;4.93;;;;;;;;;;4973359;28;20454;-70
2021/12/18 03:32:24;;;;;;;17.20;4.95;;;;;;;;;;4973707;28;20056;-71
2021/12/18 03:34:51;;;;;;;12.07;4.90;;;;;;;;;;4973599;28;20209;-71
2021/12/18 03:37:18;;;;;;;10.15;4.07;;;;;;;;;;4969657;28;20462;-70
2021/12/18 03:39:44;;;;;;;8.32;3.83;;;;;;;;;;4979208;28;20055;-71
2021/12/18 03:42:11;;;;;;;12.32;4.65;;;;;;;;;;4977179;28;20055;-69
2021/12/18 03:44:38;;;;;;;10.45;4.70;;;;;;;;;;4975067;28;20453;-70
2021/12/18 03:47:05;;;;;;;7.53;3.60;;;;;;;;;;4972775;28;20063;-69
2021/12/18 03:49:31;;;;;;;10.32;4.25;;;;;;;;;;4973373;28;20047;-71
2021/12/18 03:51:58;;;;;;;9.40;4.22;;;;;;;;;;4964957;28;20144;-70
2021/12/18 03:54:24;;;;;;;12.52;4.10;;;;;;;;;;4973052;28;20052;-70
2021/12/18 03:56:51;;;;;;;11.68;4.43;;;;;;;;;;4972859;28;20538;-70
2021/12/18 03:59:17;;;;;;;12.82;4.97;;;;;;;;;;4973208;28;20517;-70
2021/12/18 04:01:43;;;;;;;11.23;4.43;;;;;;;;;;4973104;28;20059;-70
2021/12/18 04:04:10;;;;;;;13.93;5.13;;;;;;;;;;4960460;28;20058;-71
2021/12/18 04:06:39;;;;;;;12.15;4.82;;;;;;;;;;4973346;28;20082;-70
2021/12/18 04:09:06;;;;;;;7.53;3.80;;;;;;;;;;4973039;28;20591;-70
2021/12/18 04:11:33;;;;;;;10.75;3.92;;;;;;;;;;5005689;28;20055;-69
2021/12/18 04:14:01;;;;;;;8.75;4.30;;;;;;;;;;4963356;28;20512;-69
2021/12/18 04:16:28;;;;;;;9.50;4.35;;;;;;;;;;4972424;28;20585;-69
2021/12/18 04:18:54;;;;;;;6.32;2.88;;;;;;;;;;5004416;28;20066;-69
2021/12/18 04:21:20;;;;;;;7.60;3.17;;;;;;;;;;4973040;28;20347;-71
2021/12/18 04:23:47;;;;;;;7.63;3.17;;;;;;;;;;4973595;28;20081;-69
2021/12/18 04:26:13;;;;;;;8.15;3.35;;;;;;;;;;4975505;28;20929;-69
2021/12/18 04:28:39;;;;;;;7.97;2.90;;;;;;;;;;4972837;28;20151;-69
2021/12/18 04:31:06;;;;;;;7.85;2.90;;;;;;;;;;4974268;28;20135;-68
2021/12/18 04:33:32;;;;;;;10.15;2.42;;;;;;;;;;4973047;28;20067;-69
2021/12/18 04:35:58;;;;;;;5.80;2.60;;;;;;;;;;4972635;28;20055;-69
2021/12/18 04:38:25;;;;;;;6.55;2.83;;;;;;;;;;4973333;28;20061;-70
2021/12/18 04:40:51;;;;;;;7.50;2.92;;;;;;;;;;4972864;28;20059;-70
2021/12/18 04:43:18;;;;;;;7.38;2.88;;;;;;;;;;4972891;28;20073;-70
2021/12/18 04:45:44;;;;;;;6.03;2.58;;;;;;;;;;4973004;28;20055;-70
2021/12/18 04:48:10;;;;;;;6.72;2.80;;;;;;;;;;4972800;28;20066;-69
2021/12/18 04:50:37;;;;;;;7.43;3.33;;;;;;;;;;4960658;28;20056;-70
2021/12/18 04:53:03;;;;;;;9.48;3.20;;;;;;;;;;4954209;28;20060;-69
2021/12/18 04:55:29;;;;;;;5.88;2.70;;;;;;;;;;4965111;28;20067;-69
2021/12/18 04:57:56;;;;;;;8.85;2.50;;;;;;;;;;4957432;28;20521;-69
2021/12/18 05:00:29;;;;;;;7.13;2.72;;;;;;;;;;4972466;28;20059;-71
2021/12/18 05:02:56;;;;;;;7.40;1.80;;;;;;;;;;4972686;28;20052;-70
2021/12/18 05:05:22;;;;;;;10.52;2.40;;;;;;;;;;4972905;28;20138;-70
2021/12/18 05:07:48;;;;;;;4.88;1.75;;;;;;;;;;4972617;28;20059;-69
2021/12/18 05:10:15;;;;;;;4.25;1.83;;;;;;;;;;4972481;28;20059;-69
2021/12/18 05:12:41;;;;;;;5.18;2.00;;;;;;;;;;4972615;28;20056;-72
2021/12/18 05:15:07;;;;;;;4.28;1.73;;;;;;;;;;4969036;28;20055;-70
2021/12/18 05:17:34;;;;;;;5.05;2.20;;;;;;;;;;4972342;28;20055;-69
2021/12/18 05:20:00;;;;;;;6.20;2.40;;;;;;;;;;4980423;28;20097;-69
2021/12/18 05:22:26;;;;;;;9.68;2.22;;;;;;;;;;4973042;28;20517;-69
2021/12/18 05:24:52;;;;;;;12.93;2.10;;;;;;;;;;4979383;28;20055;-70
2021/12/18 05:27:19;;;;;;;9.60;1.60;;;;;;;;;;4963972;28;20059;-70
2021/12/18 05:29:45;;;;;;;3.22;1.70;;;;;;;;;;4972896;28;20529;-70
2021/12/18 05:32:11;;;;;;;3.08;1.88;;;;;;;;;;4977152;28;20051;-69
2021/12/18 05:34:38;;;;;;;5.88;1.50;;;;;;;;;;4983370;28;20145;-69
2021/12/18 05:37:18;;;;;;;9.20;1.98;;;;;;;;;;4980585;28;20485;-69
2021/12/18 05:39:46;;;;;;;7.78;1.73;;;;;;;;;;4986013;28;20063;-69
2021/12/18 05:42:14;;;;;;;5.53;1.60;;;;;;;;;;4969334;28;20059;-69
2021/12/18 05:44:41;;;;;;;6.57;2.45;;;;;;;;;;4976456;28;20522;-69
2021/12/18 05:47:07;;;;;;;6.32;2.33;;;;;;;;;;4997657;28;20499;-69
2021/12/18 05:49:33;;;;;;;6.28;1.77;;;;;;;;;;4985201;28;20521;-70
2021/12/18 05:52:00;;;;;;;9.05;2.25;;;;;;;;;;4972524;28;20055;-72
2021/12/18 05:54:26;;;;;;;6.03;1.50;;;;;;;;;;4971911;28;20055;-68
2021/12/18 05:56:52;;;;;;;10.35;1.63;;;;;;;;;;4976099;28;20047;-70
2021/12/18 05:59:19;;;;;;;3.35;1.25;;;;;;;;;;4971950;28;20051;-69
2021/12/18 06:01:45;;;;;;;3.55;1.70;;;;;;;;;;4971073;28;20047;-69
2021/12/18 06:04:11;;;;;;;8.48;1.58;;;;;;;;;;4971296;28;20070;-71
2021/12/18 06:06:38;;;;;;;21.75;2.20;;;;;;;;;;4971045;28;20105;-68
2021/12/18 06:09:04;;;;;;;5.57;1.30;;;;;;;;;;4971603;28;20404;-71
2021/12/18 06:11:32;;;;;;;5.88;1.95;;;;;;;;;;4970959;28;20612;-71
2021/12/18 06:13:58;;;;;;;11.27;1.60;;;;;;;;;;4972573;28;20061;-71
2021/12/18 06:16:25;;;;;;;3.92;1.23;;;;;;;;;;4967276;28;20055;-71
2021/12/18 06:18:52;;;;;;;12.70;1.33;;;;;;;;;;4986867;28;20062;-71
2021/12/18 06:21:19;;;;;;;3.42;1.33;;;;;;;;;;4971005;28;20150;-71
2021/12/18 06:23:47;;;;;;;9.85;1.60;;;;;;;;;;4971160;28;20058;-71
2021/12/18 06:26:14;;;;;;;23.17;1.80;;;;;;;;;;4971509;28;20055;-71
2021/12/18 06:28:40;;;;;;;31.92;2.05;;;;;;;;;;4971874;28;20062;-71
2021/12/18 06:31:26;;;;;;;4.20;1.70;;;;;;;;;;4970877;28;20062;-69
2021/12/18 06:33:53;;;;;;;6.03;1.60;;;;;;;;;;4969902;28;20055;-71
2021/12/18 06:36:20;;;;;;;24.05;2.00;;;;;;;;;;4969971;28;20066;-70
2021/12/18 06:38:47;;;;;;;22.02;2.25;;;;;;;;;;5017648;28;20145;-69
2021/12/18 06:41:14;;;;;;;24.13;1.75;;;;;;;;;;4977366;28;20059;-70
2021/12/18 06:43:40;;;;;;;4.60;2.28;;;;;;;;;;4971401;28;20051;-69
2021/12/18 06:46:06;;;;;;;3.40;1.38;;;;;;;;;;4971454;28;20062;-69
2021/12/18 06:48:33;;;;;;;4.53;1.48;;;;;;;;;;4971163;28;20054;-69
2021/12/18 06:51:00;;;;;;;2.72;1.67;;;;;;;;;;4970386;28;20066;-70
2021/12/18 06:53:26;;;;;;;2.85;1.58;;;;;;;;;;4971142;28;20109;-71
2021/12/18 06:55:52;;;;;;;1.60;1.00;;;;;;;;;;4970686;28;20055;-69
2021/12/18 06:58:20;;;;;;;3.58;1.05;;;;;;;;;;4970950;28;20059;-70
2021/12/18 07:00:47;;;;;;;2.85;1.27;;;;;;;;;;4970863;28;20061;-69
2021/12/18 07:03:14;;;;;;;2.03;1.17;;;;;;;;;;4970456;28;20202;-68
2021/12/18 07:05:40;;;;;;;7.95;1.40;;;;;;;;;;4970427;28;20055;-70
2021/12/18 07:08:06;;;;;;;4.32;1.27;;;;;;;;;;4971109;28;20054;-71
2021/12/18 07:10:33;;;;;;;24.00;1.95;;;;;;;;;;4971051;28;20575;-70
2021/12/18 07:12:59;;;;;;;7.60;1.88;;;;;;;;;;4970515;28;20422;-70
2021/12/18 07:15:25;;;;;;;4.05;1.58;;;;;;;;;;4970937;28;20083;-70
2021/12/18 07:17:52;;;;;;;5.43;1.60;;;;;;;;;;4970637;28;20063;-69
2021/12/18 07:20:18;;;;;;;3.35;1.70;;;;;;;;;;4970349;28;20587;-71
2021/12/18 07:22:45;;;;;;;13.40;1.92;;;;;;;;;;4970806;28;20051;-70
2021/12/18 07:25:11;;;;;;;24.75;2.30;;;;;;;;;;4970623;28;20051;-71
2021/12/18 07:27:37;;;;;;;7.55;1.70;;;;;;;;;;4970160;28;20051;-71
2021/12/18 07:30:05;;;;;;;2.20;1.35;;;;;;;;;;4970531;28;20517;-72
2021/12/18 07:32:31;;;;;;;3.25;1.20;;;;;;;;;;4969766;28;20055;-69
2021/12/18 07:34:58;;;;;;;7.40;1.60;;;;;;;;;;4970146;28;20056;-69
2021/12/18 07:37:24;;;;;;;8.52;1.60;;;;;;;;;;4970191;28;20150;-69
2021/12/18 07:39:52;;;;;;;6.00;1.52;;;;;;;;;;4970844;28;20146;-70
2021/12/18 07:42:18;;;;;;;8.48;1.67;;;;;;;;;;4970834;28;20067;-70
2021/12/18 07:44:44;;;;;;;3.42;1.40;;;;;;;;;;4970587;28;20491;-70
2021/12/18 07:47:11;;;;;;;7.70;1.70;;;;;;;;;;4970054;28;20452;-71
2021/12/18 07:49:37;;;;;;;10.35;1.70;;;;;;;;;;4969923;28;20530;-70
2021/12/18 07:52:04;;;;;;;4.18;1.50;;;;;;;;;;4970274;28;20062;-71
2021/12/18 07:54:31;;;;;;;18.50;1.60;;;;;;;;;;4970059;28;20063;-71
2021/12/18 07:56:57;;;;;;;8.77;1.52;;;;;;;;;;4969580;28;20061;-71
2021/12/18 07:59:23;;;;;;;21.67;1.58;;;;;;;;;;4968657;28;20503;-71
2021/12/18 08:01:50;;;;;;;10.95;1.80;;;;;;;;;;4970316;28;20056;-70
2021/12/18 08:04:17;;;;;;;8.95;2.03;;;;;;;;;;4972659;28;20640;-71
2021/12/18 08:06:44;;;;;;;16.55;1.73;;;;;;;;;;4973677;28;20064;-70
2021/12/18 08:09:10;;;;;;;17.08;1.85;;;;;;;;;;4967269;28;20055;-71
2021/12/18 08:11:36;;;;;;;2.88;1.20;;;;;;;;;;4953860;28;20504;-72
2021/12/18 08:14:03;;;;;;;1.67;0.77;;;;;;;;;;4953197;28;20099;-72
2021/12/18 08:16:29;;;;;;;7.97;1.38;;;;;;;;;;4961860;28;20094;-71
2021/12/18 08:18:55;;;;;;;9.07;1.25;;;;;;;;;;4955693;28;20062;-71
2021/12/18 08:21:21;;;;;;;5.40;0.90;;;;;;;;;;4954502;28;20056;-71
2021/12/18 08:23:48;;;;;;;1.15;0.63;;;;;;;;;;4953644;28;20067;-70
2021/12/18 08:26:14;;;;;;;2.38;0.63;;;;;;;;;;4955427;28;20482;-72
2021/12/18 08:28:40;;;;;;;1.52;0.88;;;;;;;;;;4938872;28;20169;-70
2021/12/18 08:31:07;;;;;;;1.45;0.98;;;;;;;;;;4968131;28;20091;-70
2021/12/18 08:33:34;;;;;;;3.15;1.75;;;;;;;;;;4973426;28;20059;-71
2021/12/18 08:36:00;;;;;;;4.70;1.20;;;;;;;;;;4967716;28;20108;-71
2021/12/18 08:38:26;;;;;;;1.58;0.95;;;;;;;;;;4957764;28;20052;-74
2021/12/18 08:40:53;;;;;;;1.98;0.90;;;;;;;;;;4953553;28;20522;-72
2021/12/18 08:43:19;;;;;;;2.10;1.00;;;;;;;;;;4953907;28;20060;-72
2021/12/18 08:45:46;;;;;;;2.78;1.00;;;;;;;;;;4953573;28;20062;-71
2021/12/18 08:48:12;;;;;;;1.42;0.88;;;;;;;;;;4952826;28;20059;-73
2021/12/18 08:50:38;;;;;;;12.82;1.23;;;;;;;;;;4954114;28;20121;-76
2021/12/18 08:53:05;;;;;;;4.63;1.38;;;;;;;;;;4953460;28;20058;-71
2021/12/18 08:55:31;;;;;;;3.05;1.40;;;;;;;;;;4953526;28;20072;-70
2021/12/18 08:57:57;;;;;;;2.35;1.50;;;;;;;;;;4953071;28;20517;-70
2021/12/18 09:00:24;;;;;;;1.83;1.30;;;;;;;;;;4953996;28;20055;-70
2021/12/18 09:02:53;;;;;;;2.42;1.40;;;;;;;;;;4952711;28;20091;-70
2021/12/18 09:05:19;;;;;;;3.47;0.98;;;;;;;;;;4934329;29;20147;-70
2021/12/18 09:07:45;;;;;;;2.65;1.23;;;;;;;;;;4952956;28;20059;-71
2021/12/18 09:10:14;;;;;;;1.30;1.00;;;;;;;;;;4953534;28;20540;-70
2021/12/18 09:12:40;;;;;;;1.77;1.20;;;;;;;;;;4953656;28;20051;-72
2021/12/18 09:15:07;;;;;;;1.27;0.73;;;;;;;;;;4952968;28;20062;-68
2021/12/18 09:17:33;;;;;;;3.03;1.50;;;;;;;;;;4951256;28;20055;-72
2021/12/18 09:20:00;;;;;;;3.45;1.30;;;;;;;;;;4953402;28;20574;-70
2021/12/18 09:22:26;;;;;;;2.97;1.40;;;;;;;;;;4953418;28;20622;-71
2021/12/18 09:24:52;;;;;;;1.40;1.08;;;;;;;;;;4953434;28;20504;-70
2021/12/18 09:27:20;;;;;;;3.30;1.20;;;;;;;;;;4953507;28;20062;-70
2021/12/18 09:29:46;;;;;;;8.25;1.77;;;;;;;;;;4953294;28;20114;-70
2021/12/18 09:32:12;;;;;;;3.55;2.30;;;;;;;;;;4953024;28;20512;-70
2021/12/18 09:34:38;;;;;;;7.88;3.15;;;;;;;;;;4953269;28;20059;-70
2021/12/18 09:37:05;;;;;;;5.47;2.30;;;;;;;;;;4952997;28;20474;-70
2021/12/18 09:39:31;;;;;;;7.78;2.20;;;;;;;;;;4952932;28;20058;-70
2021/12/18 09:41:57;;;;;;;3.17;2.10;;;;;;;;;;4952924;28;20066;-70
2021/12/18 09:44:25;;;;;;;2.92;1.52;;;;;;;;;;4953091;28;20094;-70
2021/12/18 09:46:52;;;;;;;5.47;1.88;;;;;;;;;;4953076;28;20058;-70
2021/12/18 09:49:18;;;;;;;3.10;1.38;;;;;;;;;;4953177;28;20190;-70
2021/12/18 09:51:44;;;;;;;5.50;1.50;;;;;;;;;;4952930;28;20102;-71
2021/12/18 09:54:11;;;;;;;1.65;1.23;;;;;;;;;;4953135;28;20044;-71
2021/12/18 09:56:38;;;;;;;3.20;1.50;;;;;;;;;;4952824;28;20059;-71
2021/12/18 09:59:05;;;;;;;2.00;1.17;;;;;;;;;;4952424;28;20542;-70
2021/12/18 10:01:31;;;;;;;3.47;1.77;;;;;;;;;;4953404;28;20060;-70
2021/12/18 10:03:59;;;;;;;4.10;1.95;;;;;;;;;;4936200;28;20056;-70
2021/12/18 10:06:32;;;;;;;3.08;1.60;;;;;;;;;;4952853;28;20134;-71
2021/12/18 10:08:59;;;;;;;3.67;1.85;;;;;;;;;;4951409;28;20066;-70
2021/12/18 10:11:25;;;;;;;5.07;2.63;;;;;;;;;;4953128;28;20496;-70
2021/12/18 10:13:53;;;;;;;4.20;2.40;;;;;;;;;;4952776;28;20051;-71
2021/12/18 10:16:21;;;;;;;3.65;2.22;;;;;;;;;;4952812;28;20106;-70
2021/12/18 10:18:47;;;;;;;10.38;2.28;;;;;;;;;;4953705;28;20147;-71
2021/12/18 10:21:16;;;;;;;9.00;3.22;;;;;;;;;;4952586;28;20066;-71
2021/12/18 10:23:42;;;;;;;21.73;4.45;;;;;;;;;;4952594;28;20063;-70
2021/12/18 10:26:27;;;;;;;18.35;3.55;;;;;;;;;;4952288;28;20051;-70
2021/12/18 10:28:54;;;;;;;5.97;1.63;;;;;;;;;;4952264;28;20788;-71
2021/12/18 10:31:40;;;;;;;5.95;2.05;;;;;;;;;;4952714;28;20059;-70
2021/12/18 10:34:14;;;;;;;43.22;4.78;;;;;;;;;;4952464;28;20052;-70
2021/12/18 10:36:40;;;;;;;10.00;2.10;;;;;;;;;;4951897;28;20051;-68
2021/12/18 10:39:06;;;;;;;2.88;1.77;;;;;;;;;;4953386;28;20067;-66
2021/12/18 10:41:34;;;;;;;3.03;1.55;;;;;;;;;;4952795;28;20150;-69
2021/12/18 10:44:04;;;;;;;2.92;1.58;;;;;;;;;;4952360;28;20114;-69
2021/12/18 10:46:31;;;;;;;3.83;1.20;;;;;;;;;;4953342;28;20150;-70
2021/12/18 10:49:26;;;;;;;3.58;1.88;;;;;;;;;;4951381;28;20047;-69
2021/12/18 10:51:55;;;;;;;2.30;1.60;;;;;;;;;;4926554;28;20051;-70
2021/12/18 10:54:22;;;;;;;2.75;1.23;;;;;;;;;;4951655;28;20428;-69
2021/12/18 10:56:51;;;;;;;3.22;1.65;;;;;;;;;;4951705;28;20060;-68
2021/12/18 10:59:31;;;;;;;5.18;1.63;;;;;;;;;;4952046;28;20056;-69
2021/12/18 11:02:01;;;;;;;2.72;1.77;;;;;;;;;;4952498;28;20059;-69
2021/12/18 11:04:34;;;;;;;3.33;2.20;;;;;;;;;;4951737;28;20051;-68
2021/12/18 11:07:17;;;;;;;3.63;1.73;;;;;;;;;;4958683;28;20500;-69
2021/12/18 11:09:59;;;;;;;2.08;1.55;;;;;;;;;;4964916;28;20056;-69
2021/12/18 11:15:10;;;;;;;3.65;2.00;;;;;;;;;;4953297;28;20059;-69
2021/12/18 11:17:37;;;;;;;2.63;1.90;;;;;;;;;;4956691;28;20066;-70
2021/12/18 11:20:03;;;;;;;2.88;2.25;;;;;;;;;;4952695;28;20077;-68
2021/12/18 11:22:30;;;;;;;2.58;1.85;;;;;;;;;;4948179;28;20052;-70
2021/12/18 11:24:56;;;;;;;3.17;2.10;;;;;;;;;;4958890;28;20056;-70
2021/12/18 11:27:22;;;;;;;2.58;1.88;;;;;;;;;;4950468;28;20059;-70
2021/12/18 11:29:51;;;;;;;4.10;2.25;;;;;;;;;;4951566;28;20055;-70
2021/12/18 11:32:20;;;;;;;2.90;2.05;;;;;;;;;;4951398;28;20118;-69
2021/12/18 11:34:47;;;;;;;3.42;2.30;;;;;;;;;;4951708;28;22157;-70
2021/12/18 11:37:15;;;;;;;2.05;1.50;;;;;;;;;;4953201;28;20059;-70
2021/12/18 11:39:43;;;;;;;2.85;2.22;;;;;;;;;;4939471;28;20066;-69
2021/12/18 11:42:11;;;;;;;2.50;1.70;;;;;;;;;;4955536;28;20060;-69
2021/12/18 11:44:40;;;;;;;2.55;1.70;;;;;;;;;;4953748;28;20056;-69
2021/12/18 11:47:25;;;;;;;3.92;1.92;;;;;;;;;;4954250;28;20060;-69
2021/12/18 11:49:53;;;;;;;3.38;2.20;;;;;;;;;;4954440;28;20140;-69
2021/12/18 11:52:19;;;;;;;3.22;2.15;;;;;;;;;;4954071;28;20056;-69
2021/12/18 11:54:50;;;;;;;4.53;2.25;;;;;;;;;;4960121;28;20210;-68
2021/12/18 11:57:35;;;;;;;6.22;3.22;;;;;;;;;;4973457;28;20056;-69
2021/12/18 12:00:03;;;;;;;3.43;2.23;;;;;;;;;;4954853;28;20058;-69
2021/12/18 12:02:46;;;;;;;5.07;2.85;;;;;;;;;;4952409;28;20275;-69
2021/12/18 12:05:14;;;;;;;5.05;2.75;;;;;;;;;;5043050;28;20053;-70
2021/12/18 12:07:42;;;;;;;4.30;2.72;;;;;;;;;;4955509;28;20070;-70
2021/12/18 12:10:13;;;;;;;4.90;3.13;;;;;;;;;;4954462;28;20056;-69
2021/12/18 12:12:47;;;;;;;5.30;3.00;;;;;;;;;;4953277;28;20062;-69
2021/12/18 12:15:15;;;;;;;5.63;3.00;;;;;;;;;;4952628;28;20059;-69
2021/12/18 12:17:57;;;;;;;4.43;2.72;;;;;;;;;;4957635;28;20047;-70
2021/12/18 12:20:38;;;;;;;4.18;2.80;;;;;;;;;;4961957;28;20154;-69
2021/12/18 12:23:05;;;;;;;4.50;2.85;;;;;;;;;;4959836;28;20055;-69
2021/12/18 12:25:36;;;;;;;5.90;2.53;;;;;;;;;;4957325;28;20054;-68
2021/12/18 12:28:04;;;;;;;3.35;2.30;;;;;;;;;;4958728;28;20055;-68
2021/12/18 12:30:42;;;;;;;4.60;2.72;;;;;;;;;;4971187;28;20516;-68
2021/12/18 12:33:10;;;;;;;4.55;2.38;;;;;;;;;;4964554;28;20513;-69
2021/12/18 12:35:54;;;;;;;9.95;2.45;;;;;;;;;;4991390;28;20056;-69
2021/12/18 12:38:25;;;;;;;3.22;1.90;;;;;;;;;;4951422;28;20523;-69
2021/12/18 12:40:53;;;;;;;3.00;1.90;;;;;;;;;;4970672;28;20507;-69
2021/12/18 12:43:26;;;;;;;2.50;1.30;;;;;;;;;;4948624;28;20060;-68
2021/12/18 12:45:55;;;;;;;2.90;1.77;;;;;;;;;;4954343;28;20186;-70
2021/12/18 12:48:23;;;;;;;1.88;1.23;;;;;;;;;;4950751;28;20071;-69
2021/12/18 12:50:55;;;;;;;2.42;1.30;;;;;;;;;;4952274;28;20048;-69
2021/12/18 12:53:21;;;;;;;2.08;1.40;;;;;;;;;;4958680;28;20487;-70
2021/12/18 12:55:49;;;;;;;1.40;1.30;;;;;;;;;;4941089;28;20065;-68
2021/12/18 12:58:19;;;;;;;10.40;1.50;;;;;;;;;;4951630;28;20146;-68
2021/12/18 13:00:48;;;;;;;2.95;1.60;;;;;;;;;;4951922;28;20058;-68
2021/12/18 13:03:16;;;;;;;3.08;1.63;;;;;;;;;;4952649;28;20051;-71
2021/12/18 13:05:45;;;;;;;4.95;2.00;;;;;;;;;;4952504;28;20078;-68
2021/12/18 13:08:11;;;;;;;4.18;2.38;;;;;;;;;;4935932;28;20056;-70
2021/12/18 13:10:38;;;;;;;2.53;2.15;;;;;;;;;;4952486;28;20052;-69
2021/12/18 13:13:12;;;;;;;5.57;2.50;;;;;;;;;;4950650;28;20935;-69
2021/12/18 13:15:45;;;;;;;13.75;3.63;;;;;;;;;;4953687;28;20056;-69
2021/12/18 13:18:11;;;;;;;6.50;3.10;;;;;;;;;;4952472;28;20059;-69
2021/12/18 13:20:44;;;;;;;6.47;3.30;;;;;;;;;;4950982;28;20548;-70
2021/12/18 13:23:17;;;;;;;5.07;3.33;;;;;;;;;;4957232;28;20060;-69
2021/12/18 13:25:46;;;;;;;6.22;3.30;;;;;;;;;;4950115;28;20066;-70
2021/12/18 13:28:12;;;;;;;5.68;4.25;;;;;;;;;;4952348;28;20059;-69
2021/12/18 13:30:41;;;;;;;7.30;4.15;;;;;;;;;;4951134;28;20131;-70
2021/12/18 13:33:07;;;;;;;4.57;3.30;;;;;;;;;;4945244;28;20059;-69
2021/12/18 13:35:35;;;;;;;5.30;3.22;;;;;;;;;;4952750;28;20056;-67
2021/12/18 13:38:04;;;;;;;5.32;3.22;;;;;;;;;;4952503;28;20880;-68
2021/12/18 13:40:35;;;;;;;4.97;2.88;;;;;;;;;;4952367;28;20063;-70
2021/12/18 13:43:10;;;;;;;4.50;2.40;;;;;;;;;;4952159;28;20055;-70
2021/12/18 13:45:56;;;;;;;3.60;2.65;;;;;;;;;;4952513;28;20055;-70
2021/12/18 13:48:24;;;;;;;3.72;2.55;;;;;;;;;;4945464;28;20142;-70
2021/12/18 13:50:52;;;;;;;3.60;2.55;;;;;;;;;;4952306;28;20149;-70
2021/12/18 13:53:18;;;;;;;4.13;2.63;;;;;;;;;;4951434;28;20052;-71
2021/12/18 13:55:47;;;;;;;2.80;1.95;;;;;;;;;;4951319;28;20067;-71
2021/12/18 13:58:25;;;;;;;3.58;1.83;;;;;;;;;;4952139;28;20052;-71
2021/12/18 14:01:03;;;;;;;5.38;1.88;;;;;;;;;;4950996;28;20056;-70
2021/12/18 14:03:31;;;;;;;2.58;1.83;;;;;;;;;;4942151;28;20143;-71
2021/12/18 14:06:02;;;;;;;5.00;2.13;;;;;;;;;;4952205;28;20051;-70
2021/12/18 14:08:29;;;;;;;2.45;1.70;;;;;;;;;;4952640;28;20059;-69
2021/12/18 14:10:55;;;;;;;3.53;2.00;;;;;;;;;;4952094;28;20056;-70
2021/12/18 14:13:22;;;;;;;3.97;1.88;;;;;;;;;;4946649;28;20059;-69
2021/12/18 14:15:48;;;;;;;3.50;1.90;;;;;;;;;;4951973;28;20056;-69
2021/12/18 14:18:33;;;;;;;2.72;1.77;;;;;;;;;;4952835;28;20514;-70
2021/12/18 14:21:00;;;;;;;3.75;1.95;;;;;;;;;;4951984;28;20052;-70
2021/12/18 14:23:30;;;;;;;2.80;2.00;;;;;;;;;;4939603;28;20048;-67
2021/12/18 14:26:11;;;;;;;3.10;1.77;;;;;;;;;;4941215;28;20569;-70
2021/12/18 14:28:38;;;;;;;2.53;1.63;;;;;;;;;;4940144;28;20141;-70
2021/12/18 14:31:22;;;;;;;2.38;1.50;;;;;;;;;;4950847;28;20147;-71
2021/12/18 14:33:53;;;;;;;2.65;1.50;;;;;;;;;;4953712;28;20056;-71
2021/12/18 14:36:37;;;;;;;4.07;1.52;;;;;;;;;;4953017;28;20056;-69
2021/12/18 14:39:03;;;;;;;2.17;1.60;;;;;;;;;;4954257;28;20563;-69
2021/12/18 14:41:32;;;;;;;1.73;1.50;;;;;;;;;;4952110;28;20058;-69
2021/12/18 14:43:59;;;;;;;3.13;1.60;;;;;;;;;;4952269;28;20060;-69
2021/12/18 14:46:26;;;;;;;3.45;1.73;;;;;;;;;;4949890;28;20484;-69
2021/12/18 14:48:52;;;;;;;2.90;1.95;;;;;;;;;;4944835;28;20060;-68
2021/12/18 14:51:27;;;;;;;2.63;2.00;;;;;;;;;;4947483;28;20060;-69
2021/12/18 14:54:01;;;;;;;3.67;2.42;;;;;;;;;;4949049;28;20143;-68
2021/12/18 14:56:27;;;;;;;4.40;2.80;;;;;;;;;;4960192;28;20060;-68
2021/12/18 14:58:54;;;;;;;4.40;2.75;;;;;;;;;;4962582;28;20142;-68
2021/12/18 15:01:20;;;;;;;4.72;2.45;;;;;;;;;;4970247;28;20157;-69
2021/12/18 15:03:48;;;;;;;4.22;3.03;;;;;;;;;;4971060;28;20055;-69
2021/12/18 15:06:17;;;;;;;4.78;2.78;;;;;;;;;;4982419;28;20160;-69
2021/12/18 15:08:48;;;;;;;3.67;2.50;;;;;;;;;;4975689;28;20052;-69
2021/12/18 15:11:27;;;;;;;5.47;2.72;;;;;;;;;;4964505;28;20435;-71
2021/12/18 15:13:59;;;;;;;3.35;2.45;;;;;;;;;;4971636;28;20055;-69
2021/12/18 15:16:30;;;;;;;3.65;2.15;;;;;;;;;;4990676;28;20104;-68
2021/12/18 15:18:59;;;;;;;5.00;3.00;;;;;;;;;;4972598;28;20553;-68
2021/12/18 15:21:33;;;;;;;3.95;2.65;;;;;;;;;;4968027;28;20503;-67
2021/12/18 15:24:00;;;;;;;3.75;2.47;;;;;;;;;;4970236;28;20146;-69
2021/12/18 15:26:27;;;;;;;3.38;2.47;;;;;;;;;;4970435;28;20059;-69
2021/12/18 15:28:54;;;;;;;3.50;2.40;;;;;;;;;;4971195;28;20066;-69
2021/12/18 15:31:20;;;;;;;6.68;2.55;;;;;;;;;;4976056;28;20090;-69